sensor_id;sensor_type;location;lat;lon;timestamp;temperature;humidity
8067;DHT22;4076;48.076;9.118;2023-08-12T00:00:11;16.50;99.90
8067;DHT22;4076;48.076;9.118;2023-08-12T00:02:44;16.40;99.90
8067;DHT22;4076;48.076;9.118;2023-08-12T00:05:10;16.40;99.90
8067;DHT22;4076;48.076;9.118;2023-08-12T00:07:36;16.40;99.90
8067;DHT22;4076;48.076;9.118;2023-08-12T00:10:03;16.30;99.90
8067;DHT22;4076;48.076;9.118;2023-08-12T00:12:31;16.30;99.90
8067;DHT22;4076;48.076;9.118;2023-08-12T00:14:57;16.20;99.90
8067;DHT22;4076;48.076;9.118;2023-08-12T00:17:22;16.20;99.90
8067;DHT22;4076;48.076;9.118;2023-08-12T00:19:48;16.10;99.90
8067;DHT22;4076;48.076;9.118;2023-08-12T00:22:13;16.10;99.90
8067;DHT22;4076;48.076;9.118;2023-08-12T00:24:39;16.00;99.90
8067;DHT22;4076;48.076;9.118;2023-08-12T00:27:05;16.00;99.90
8067;DHT22;4076;48.076;9.118;2023-08-12T00:29:32;15.90;99.90
8067;DHT22;4076;48.076;9.118;2023-08-12T00:31:58;15.90;99.90
8067;DHT22;4076;48.076;9.118;2023-08-12T00:34:23;15.90;99.90
8067;DHT22;4076;48.076;9.118;2023-08-12T00:36:49;15.90;99.90
8067;DHT22;4076;48.076;9.118;2023-08-12T00:39:15;15.80;99.90
8067;DHT22;4076;48.076;9.118;2023-08-12T00:41:40;15.80;99.90
8067;DHT22;4076;48.076;9.118;2023-08-12T00:44:06;15.80;99.90
8067;DHT22;4076;48.076;9.118;2023-08-12T00:46:32;15.70;99.90
8067;DHT22;4076;48.076;9.118;2023-08-12T00:48:59;15.70;99.90
8067;DHT22;4076;48.076;9.118;2023-08-12T00:51:25;15.70;99.90
8067;DHT22;4076;48.076;9.118;2023-08-12T00:53:51;15.60;99.90
8067;DHT22;4076;48.076;9.118;2023-08-12T00:56:17;15.60;99.90
8067;DHT22;4076;48.076;9.118;2023-08-12T00:58:43;15.60;99.90
8067;DHT22;4076;48.076;9.118;2023-08-12T01:01:09;15.50;99.90
8067;DHT22;4076;48.076;9.118;2023-08-12T01:03:34;15.50;99.90
8067;DHT22;4076;48.076;9.118;2023-08-12T01:06:00;15.50;99.90
8067;DHT22;4076;48.076;9.118;2023-08-12T01:08:30;15.50;99.90
8067;DHT22;4076;48.076;9.118;2023-08-12T01:11:04;15.40;99.90
8067;DHT22;4076;48.076;9.118;2023-08-12T01:13:51;15.40;99.90
8067;DHT22;4076;48.076;9.118;2023-08-12T01:16:19;15.40;99.90
8067;DHT22;4076;48.076;9.118;2023-08-12T01:18:46;15.40;99.90
8067;DHT22;4076;48.076;9.118;2023-08-12T01:21:16;15.40;99.90
8067;DHT22;4076;48.076;9.118;2023-08-12T01:23:42;15.40;99.90
8067;DHT22;4076;48.076;9.118;2023-08-12T01:26:08;15.40;99.90
8067;DHT22;4076;48.076;9.118;2023-08-12T01:28:34;15.40;99.90
8067;DHT22;4076;48.076;9.118;2023-08-12T01:31:20;15.30;99.90
8067;DHT22;4076;48.076;9.118;2023-08-12T01:33:58;15.30;99.90
8067;DHT22;4076;48.076;9.118;2023-08-12T01:36:29;15.40;99.90
8067;DHT22;4076;48.076;9.118;2023-08-12T01:38:59;15.30;99.90
8067;DHT22;4076;48.076;9.118;2023-08-12T01:41:25;15.30;99.90
8067;DHT22;4076;48.076;9.118;2023-08-12T01:43:51;15.30;99.90
8067;DHT22;4076;48.076;9.118;2023-08-12T01:46:17;15.30;99.90
8067;DHT22;4076;48.076;9.118;2023-08-12T01:48:43;15.30;99.90
8067;DHT22;4076;48.076;9.118;2023-08-12T01:51:08;15.30;99.90
8067;DHT22;4076;48.076;9.118;2023-08-12T01:53:34;15.40;99.90
8067;DHT22;4076;48.076;9.118;2023-08-12T01:56:00;15.40;99.90
8067;DHT22;4076;48.076;9.118;2023-08-12T01:58:25;15.40;99.90
8067;DHT22;4076;48.076;9.118;2023-08-12T02:00:52;15.40;99.90
8067;DHT22;4076;48.076;9.118;2023-08-12T02:03:18;15.40;99.90
8067;DHT22;4076;48.076;9.118;2023-08-12T02:05:43;15.50;99.90
8067;DHT22;4076;48.076;9.118;2023-08-12T02:08:09;15.50;99.90
8067;DHT22;4076;48.076;9.118;2023-08-12T02:10:35;15.50;99.90
8067;DHT22;4076;48.076;9.118;2023-08-12T02:13:00;15.50;99.90
8067;DHT22;4076;48.076;9.118;2023-08-12T02:15:28;15.60;99.90
8067;DHT22;4076;48.076;9.118;2023-08-12T02:17:53;15.60;99.90
8067;DHT22;4076;48.076;9.118;2023-08-12T02:20:19;15.70;99.90
8067;DHT22;4076;48.076;9.118;2023-08-12T02:22:45;15.70;99.90
8067;DHT22;4076;48.076;9.118;2023-08-12T02:25:10;15.80;99.90
8067;DHT22;4076;48.076;9.118;2023-08-12T02:27:36;15.80;99.90
8067;DHT22;4076;48.076;9.118;2023-08-12T02:30:02;15.80;99.90
8067;DHT22;4076;48.076;9.118;2023-08-12T02:32:28;15.90;99.90
8067;DHT22;4076;48.076;9.118;2023-08-12T02:34:53;15.90;99.90
8067;DHT22;4076;48.076;9.118;2023-08-12T02:37:19;16.00;99.90
8067;DHT22;4076;48.076;9.118;2023-08-12T02:39:45;16.00;99.90
8067;DHT22;4076;48.076;9.118;2023-08-12T02:42:10;16.00;99.90
8067;DHT22;4076;48.076;9.118;2023-08-12T02:44:36;16.00;99.90
8067;DHT22;4076;48.076;9.118;2023-08-12T02:47:01;16.00;99.90
8067;DHT22;4076;48.076;9.118;2023-08-12T02:49:27;16.00;99.90
8067;DHT22;4076;48.076;9.118;2023-08-12T02:51:53;16.10;99.90
8067;DHT22;4076;48.076;9.118;2023-08-12T02:54:18;16.10;99.90
8067;DHT22;4076;48.076;9.118;2023-08-12T02:56:44;16.10;99.90
8067;DHT22;4076;48.076;9.118;2023-08-12T02:59:09;16.10;99.90
8067;DHT22;4076;48.076;9.118;2023-08-12T03:01:35;16.10;99.90
8067;DHT22;4076;48.076;9.118;2023-08-12T03:04:01;16.10;99.90
8067;DHT22;4076;48.076;9.118;2023-08-12T03:06:26;16.00;99.90
8067;DHT22;4076;48.076;9.118;2023-08-12T03:08:52;16.00;99.90
8067;DHT22;4076;48.076;9.118;2023-08-12T03:11:17;16.00;99.90
8067;DHT22;4076;48.076;9.118;2023-08-12T03:13:44;16.00;99.90
8067;DHT22;4076;48.076;9.118;2023-08-12T03:16:13;16.00;99.90
8067;DHT22;4076;48.076;9.118;2023-08-12T03:18:40;16.00;99.90
8067;DHT22;4076;48.076;9.118;2023-08-12T03:21:09;16.00;99.90
8067;DHT22;4076;48.076;9.118;2023-08-12T03:23:36;16.00;99.90
8067;DHT22;4076;48.076;9.118;2023-08-12T03:26:02;16.00;99.90
8067;DHT22;4076;48.076;9.118;2023-08-12T03:28:29;16.00;99.90
8067;DHT22;4076;48.076;9.118;2023-08-12T03:30:54;16.10;99.90
8067;DHT22;4076;48.076;9.118;2023-08-12T03:33:20;16.00;99.90
8067;DHT22;4076;48.076;9.118;2023-08-12T03:35:47;16.00;99.90
8067;DHT22;4076;48.076;9.118;2023-08-12T03:38:13;16.10;99.90
8067;DHT22;4076;48.076;9.118;2023-08-12T03:40:39;16.10;99.90
8067;DHT22;4076;48.076;9.118;2023-08-12T03:43:05;16.10;99.90
8067;DHT22;4076;48.076;9.118;2023-08-12T03:45:30;16.10;99.90
8067;DHT22;4076;48.076;9.118;2023-08-12T03:47:56;16.10;99.90
8067;DHT22;4076;48.076;9.118;2023-08-12T03:50:22;16.10;99.90
8067;DHT22;4076;48.076;9.118;2023-08-12T03:52:47;16.20;99.90
8067;DHT22;4076;48.076;9.118;2023-08-12T03:55:13;16.20;99.90
8067;DHT22;4076;48.076;9.118;2023-08-12T03:57:38;16.20;99.90
8067;DHT22;4076;48.076;9.118;2023-08-12T04:00:05;16.20;99.90
8067;DHT22;4076;48.076;9.118;2023-08-12T04:02:32;16.30;99.90
8067;DHT22;4076;48.076;9.118;2023-08-12T04:04:58;16.20;99.90
8067;DHT22;4076;48.076;9.118;2023-08-12T04:07:23;16.20;99.90
8067;DHT22;4076;48.076;9.118;2023-08-12T04:09:49;16.20;99.90
8067;DHT22;4076;48.076;9.118;2023-08-12T04:12:15;16.20;99.90
8067;DHT22;4076;48.076;9.118;2023-08-12T04:14:40;16.30;99.90
8067;DHT22;4076;48.076;9.118;2023-08-12T04:17:06;16.30;99.90
8067;DHT22;4076;48.076;9.118;2023-08-12T04:19:32;16.30;99.90
8067;DHT22;4076;48.076;9.118;2023-08-12T04:21:57;16.30;99.90
8067;DHT22;4076;48.076;9.118;2023-08-12T04:24:23;16.30;99.90
8067;DHT22;4076;48.076;9.118;2023-08-12T04:26:48;16.30;99.90
8067;DHT22;4076;48.076;9.118;2023-08-12T04:29:14;16.30;99.90
8067;DHT22;4076;48.076;9.118;2023-08-12T04:31:40;16.30;99.90
8067;DHT22;4076;48.076;9.118;2023-08-12T04:34:06;16.30;99.90
8067;DHT22;4076;48.076;9.118;2023-08-12T04:36:32;16.30;99.90
8067;DHT22;4076;48.076;9.118;2023-08-12T04:38:57;16.30;99.90
8067;DHT22;4076;48.076;9.118;2023-08-12T04:41:23;16.30;99.90
8067;DHT22;4076;48.076;9.118;2023-08-12T04:43:49;16.30;99.90
8067;DHT22;4076;48.076;9.118;2023-08-12T04:46:15;16.30;99.90
8067;DHT22;4076;48.076;9.118;2023-08-12T04:48:40;16.30;99.90
8067;DHT22;4076;48.076;9.118;2023-08-12T04:51:06;16.40;99.90
8067;DHT22;4076;48.076;9.118;2023-08-12T04:53:32;16.40;99.90
8067;DHT22;4076;48.076;9.118;2023-08-12T04:55:57;16.50;99.90
8067;DHT22;4076;48.076;9.118;2023-08-12T04:58:23;16.50;99.90
8067;DHT22;4076;48.076;9.118;2023-08-12T05:00:50;16.60;99.90
8067;DHT22;4076;48.076;9.118;2023-08-12T05:03:17;16.60;99.90
8067;DHT22;4076;48.076;9.118;2023-08-12T05:05:43;16.70;99.90
8067;DHT22;4076;48.076;9.118;2023-08-12T05:08:08;16.70;99.90
8067;DHT22;4076;48.076;9.118;2023-08-12T05:10:34;16.70;99.90
8067;DHT22;4076;48.076;9.118;2023-08-12T05:13:00;16.80;99.90
8067;DHT22;4076;48.076;9.118;2023-08-12T05:15:25;16.90;99.90
8067;DHT22;4076;48.076;9.118;2023-08-12T05:17:51;16.90;99.90
8067;DHT22;4076;48.076;9.118;2023-08-12T05:20:16;17.00;99.90
8067;DHT22;4076;48.076;9.118;2023-08-12T05:22:42;17.10;99.90
8067;DHT22;4076;48.076;9.118;2023-08-12T05:25:08;17.20;99.90
8067;DHT22;4076;48.076;9.118;2023-08-12T05:27:33;17.30;99.90
8067;DHT22;4076;48.076;9.118;2023-08-12T05:29:59;17.40;99.90
8067;DHT22;4076;48.076;9.118;2023-08-12T05:32:25;17.40;99.90
8067;DHT22;4076;48.076;9.118;2023-08-12T05:34:52;17.50;99.90
8067;DHT22;4076;48.076;9.118;2023-08-12T05:37:18;17.70;99.90
8067;DHT22;4076;48.076;9.118;2023-08-12T05:39:43;17.90;99.90
8067;DHT22;4076;48.076;9.118;2023-08-12T05:42:09;18.00;99.90
8067;DHT22;4076;48.076;9.118;2023-08-12T05:44:34;18.20;99.90
8067;DHT22;4076;48.076;9.118;2023-08-12T05:47:00;18.30;99.90
8067;DHT22;4076;48.076;9.118;2023-08-12T05:49:26;18.40;99.90
8067;DHT22;4076;48.076;9.118;2023-08-12T05:51:51;18.40;99.90
8067;DHT22;4076;48.076;9.118;2023-08-12T05:54:17;18.50;99.90
8067;DHT22;4076;48.076;9.118;2023-08-12T05:56:42;18.60;99.90
8067;DHT22;4076;48.076;9.118;2023-08-12T05:59:10;18.70;99.90
8067;DHT22;4076;48.076;9.118;2023-08-12T06:01:36;18.80;99.90
8067;DHT22;4076;48.076;9.118;2023-08-12T06:04:02;18.90;99.90
8067;DHT22;4076;48.076;9.118;2023-08-12T06:06:27;19.00;99.90
8067;DHT22;4076;48.076;9.118;2023-08-12T06:08:53;19.20;99.90
8067;DHT22;4076;48.076;9.118;2023-08-12T06:11:18;19.30;99.90
8067;DHT22;4076;48.076;9.118;2023-08-12T06:13:44;19.60;99.90
8067;DHT22;4076;48.076;9.118;2023-08-12T06:16:09;19.70;99.90
8067;DHT22;4076;48.076;9.118;2023-08-12T06:18:35;20.00;99.90
8067;DHT22;4076;48.076;9.118;2023-08-12T06:21:01;20.10;99.90
8067;DHT22;4076;48.076;9.118;2023-08-12T06:23:26;20.30;99.90
8067;DHT22;4076;48.076;9.118;2023-08-12T06:25:52;20.40;99.90
8067;DHT22;4076;48.076;9.118;2023-08-12T06:28:17;20.70;99.90
8067;DHT22;4076;48.076;9.118;2023-08-12T06:30:46;21.10;99.90
8067;DHT22;4076;48.076;9.118;2023-08-12T06:33:14;21.20;99.90
8067;DHT22;4076;48.076;9.118;2023-08-12T06:35:39;21.40;99.90
8067;DHT22;4076;48.076;9.118;2023-08-12T06:38:05;21.60;99.90
8067;DHT22;4076;48.076;9.118;2023-08-12T06:40:31;21.70;99.90
8067;DHT22;4076;48.076;9.118;2023-08-12T06:42:56;21.70;99.90
8067;DHT22;4076;48.076;9.118;2023-08-12T06:45:22;21.60;99.90
8067;DHT22;4076;48.076;9.118;2023-08-12T06:47:48;21.70;99.90
8067;DHT22;4076;48.076;9.118;2023-08-12T06:50:13;21.90;99.90
8067;DHT22;4076;48.076;9.118;2023-08-12T06:52:39;22.20;99.90
8067;DHT22;4076;48.076;9.118;2023-08-12T06:55:05;22.50;99.90
8067;DHT22;4076;48.076;9.118;2023-08-12T06:57:30;22.70;99.90
8067;DHT22;4076;48.076;9.118;2023-08-12T06:59:56;22.80;99.90
8067;DHT22;4076;48.076;9.118;2023-08-12T07:02:22;22.90;99.90
8067;DHT22;4076;48.076;9.118;2023-08-12T07:04:48;23.10;99.90
8067;DHT22;4076;48.076;9.118;2023-08-12T07:07:13;23.20;99.90
8067;DHT22;4076;48.076;9.118;2023-08-12T07:09:39;23.30;99.90
8067;DHT22;4076;48.076;9.118;2023-08-12T07:12:05;23.30;99.90
8067;DHT22;4076;48.076;9.118;2023-08-12T07:14:30;23.50;99.90
8067;DHT22;4076;48.076;9.118;2023-08-12T07:16:56;23.90;99.90
8067;DHT22;4076;48.076;9.118;2023-08-12T07:19:22;24.30;99.90
8067;DHT22;4076;48.076;9.118;2023-08-12T07:21:47;24.40;99.90
8067;DHT22;4076;48.076;9.118;2023-08-12T07:24:13;24.20;99.90
8067;DHT22;4076;48.076;9.118;2023-08-12T07:26:39;23.90;99.90
8067;DHT22;4076;48.076;9.118;2023-08-12T07:29:04;23.60;99.90
8067;DHT22;4076;48.076;9.118;2023-08-12T07:31:30;23.30;99.90
8067;DHT22;4076;48.076;9.118;2023-08-12T07:33:55;23.00;99.90
8067;DHT22;4076;48.076;9.118;2023-08-12T07:36:21;22.80;99.90
8067;DHT22;4076;48.076;9.118;2023-08-12T07:38:47;22.70;99.90
8067;DHT22;4076;48.076;9.118;2023-08-12T07:41:13;22.70;99.90
8067;DHT22;4076;48.076;9.118;2023-08-12T07:43:38;22.70;99.90
8067;DHT22;4076;48.076;9.118;2023-08-12T07:46:04;22.70;99.90
8067;DHT22;4076;48.076;9.118;2023-08-12T07:48:30;22.80;99.90
8067;DHT22;4076;48.076;9.118;2023-08-12T07:50:59;23.00;99.90
8067;DHT22;4076;48.076;9.118;2023-08-12T07:53:25;23.40;99.90
8067;DHT22;4076;48.076;9.118;2023-08-12T07:55:51;23.80;99.90
8067;DHT22;4076;48.076;9.118;2023-08-12T07:58:17;24.20;99.90
8067;DHT22;4076;48.076;9.118;2023-08-12T08:00:43;24.50;99.90
8067;DHT22;4076;48.076;9.118;2023-08-12T08:03:08;24.70;99.90
8067;DHT22;4076;48.076;9.118;2023-08-12T08:05:34;25.40;99.90
8067;DHT22;4076;48.076;9.118;2023-08-12T08:07:59;26.90;99.90
8067;DHT22;4076;48.076;9.118;2023-08-12T08:10:25;28.10;97.50
8067;DHT22;4076;48.076;9.118;2023-08-12T08:12:51;28.10;92.40
8067;DHT22;4076;48.076;9.118;2023-08-12T08:15:17;27.70;92.20
8067;DHT22;4076;48.076;9.118;2023-08-12T08:17:42;27.10;92.40
8067;DHT22;4076;48.076;9.118;2023-08-12T08:20:08;26.40;94.20
8067;DHT22;4076;48.076;9.118;2023-08-12T08:22:35;25.80;97.40
8067;DHT22;4076;48.076;9.118;2023-08-12T08:25:01;25.20;99.90
8067;DHT22;4076;48.076;9.118;2023-08-12T08:27:27;24.80;99.90
8067;DHT22;4076;48.076;9.118;2023-08-12T08:29:52;24.40;99.90
8067;DHT22;4076;48.076;9.118;2023-08-12T08:32:18;24.10;99.90
8067;DHT22;4076;48.076;9.118;2023-08-12T08:34:44;23.90;99.90
8067;DHT22;4076;48.076;9.118;2023-08-12T08:37:09;23.80;99.90
8067;DHT22;4076;48.076;9.118;2023-08-12T08:39:35;23.80;99.90
8067;DHT22;4076;48.076;9.118;2023-08-12T08:42:02;23.90;99.90
8067;DHT22;4076;48.076;9.118;2023-08-12T08:44:30;24.40;99.90
8067;DHT22;4076;48.076;9.118;2023-08-12T08:46:58;24.70;99.90
8067;DHT22;4076;48.076;9.118;2023-08-12T08:49:28;24.80;99.90
8067;DHT22;4076;48.076;9.118;2023-08-12T08:51:56;24.70;99.90
8067;DHT22;4076;48.076;9.118;2023-08-12T08:54:22;24.60;99.90
8067;DHT22;4076;48.076;9.118;2023-08-12T08:56:49;24.50;99.90
8067;DHT22;4076;48.076;9.118;2023-08-12T08:59:15;24.30;99.90
8067;DHT22;4076;48.076;9.118;2023-08-12T09:01:41;24.30;99.90
8067;DHT22;4076;48.076;9.118;2023-08-12T09:04:09;24.70;99.90
8067;DHT22;4076;48.076;9.118;2023-08-12T09:06:38;26.40;99.90
8067;DHT22;4076;48.076;9.118;2023-08-12T09:09:06;28.30;99.90
8067;DHT22;4076;48.076;9.118;2023-08-12T09:11:34;29.90;99.90
8067;DHT22;4076;48.076;9.118;2023-08-12T09:14:00;31.20;97.40
8067;DHT22;4076;48.076;9.118;2023-08-12T09:16:25;31.60;85.20
8067;DHT22;4076;48.076;9.118;2023-08-12T09:18:55;31.20;81.40
8067;DHT22;4076;48.076;9.118;2023-08-12T09:21:21;30.50;79.00
8067;DHT22;4076;48.076;9.118;2023-08-12T09:23:47;29.80;81.90
8067;DHT22;4076;48.076;9.118;2023-08-12T09:26:19;29.10;83.20
8067;DHT22;4076;48.076;9.118;2023-08-12T09:28:45;28.50;83.60
8067;DHT22;4076;48.076;9.118;2023-08-12T09:31:31;28.00;87.80
8067;DHT22;4076;48.076;9.118;2023-08-12T09:34:06;27.70;89.80
8067;DHT22;4076;48.076;9.118;2023-08-12T09:36:33;27.70;91.00
8067;DHT22;4076;48.076;9.118;2023-08-12T09:38:59;28.20;90.60
8067;DHT22;4076;48.076;9.118;2023-08-12T09:41:26;30.30;89.40
8067;DHT22;4076;48.076;9.118;2023-08-12T09:43:53;32.60;71.30
8067;DHT22;4076;48.076;9.118;2023-08-12T09:46:21;33.50;65.10
8067;DHT22;4076;48.076;9.118;2023-08-12T09:48:47;33.50;61.40
8067;DHT22;4076;48.076;9.118;2023-08-12T09:51:14;33.90;58.50
8067;DHT22;4076;48.076;9.118;2023-08-12T09:53:42;34.00;55.90
8067;DHT22;4076;48.076;9.118;2023-08-12T09:56:08;34.40;55.60
8067;DHT22;4076;48.076;9.118;2023-08-12T09:58:37;34.50;54.30
8067;DHT22;4076;48.076;9.118;2023-08-12T10:01:05;34.30;53.80
8067;DHT22;4076;48.076;9.118;2023-08-12T10:03:33;33.70;53.20
8067;DHT22;4076;48.076;9.118;2023-08-12T10:06:00;33.10;53.20
8067;DHT22;4076;48.076;9.118;2023-08-12T10:08:27;32.70;54.10
8067;DHT22;4076;48.076;9.118;2023-08-12T10:10:54;32.20;55.30
8067;DHT22;4076;48.076;9.118;2023-08-12T10:13:21;31.40;55.30
8067;DHT22;4076;48.076;9.118;2023-08-12T10:15:48;30.70;56.50
8067;DHT22;4076;48.076;9.118;2023-08-12T10:18:15;30.10;58.10
8067;DHT22;4076;48.076;9.118;2023-08-12T10:20:40;29.80;59.60
8067;DHT22;4076;48.076;9.118;2023-08-12T10:23:07;29.80;60.50
8067;DHT22;4076;48.076;9.118;2023-08-12T10:25:37;29.80;61.90
8067;DHT22;4076;48.076;9.118;2023-08-12T10:28:03;30.00;61.90
8067;DHT22;4076;48.076;9.118;2023-08-12T10:30:30;30.30;60.20
8067;DHT22;4076;48.076;9.118;2023-08-12T10:32:57;30.40;59.40
8067;DHT22;4076;48.076;9.118;2023-08-12T10:35:23;30.50;59.80
8067;DHT22;4076;48.076;9.118;2023-08-12T10:37:50;30.90;60.10
8067;DHT22;4076;48.076;9.118;2023-08-12T10:40:22;31.00;57.90
8067;DHT22;4076;48.076;9.118;2023-08-12T10:42:49;30.70;57.30
8067;DHT22;4076;48.076;9.118;2023-08-12T10:45:17;30.30;58.70
8067;DHT22;4076;48.076;9.118;2023-08-12T10:50:26;29.90;58.70
8067;DHT22;4076;48.076;9.118;2023-08-12T10:52:53;29.80;59.30
8067;DHT22;4076;48.076;9.118;2023-08-12T10:55:26;29.90;60.00
8067;DHT22;4076;48.076;9.118;2023-08-12T10:57:54;29.80;59.20
8067;DHT22;4076;48.076;9.118;2023-08-12T11:00:24;29.80;59.30
8067;DHT22;4076;48.076;9.118;2023-08-12T11:02:51;29.50;59.10
8067;DHT22;4076;48.076;9.118;2023-08-12T11:05:18;29.10;60.60
8067;DHT22;4076;48.076;9.118;2023-08-12T11:08:00;28.70;61.30
8067;DHT22;4076;48.076;9.118;2023-08-12T11:10:30;28.20;62.10
8067;DHT22;4076;48.076;9.118;2023-08-12T11:12:57;27.80;62.70
8067;DHT22;4076;48.076;9.118;2023-08-12T11:15:41;27.50;65.90
8067;DHT22;4076;48.076;9.118;2023-08-12T11:18:13;27.10;66.50
8067;DHT22;4076;48.076;9.118;2023-08-12T11:20:40;26.90;67.60
8067;DHT22;4076;48.076;9.118;2023-08-12T11:23:07;26.70;69.60
8067;DHT22;4076;48.076;9.118;2023-08-12T11:25:34;26.50;70.90
8067;DHT22;4076;48.076;9.118;2023-08-12T11:28:00;26.40;71.50
8067;DHT22;4076;48.076;9.118;2023-08-12T11:30:26;26.30;73.80
8067;DHT22;4076;48.076;9.118;2023-08-12T11:32:54;26.30;74.10
8067;DHT22;4076;48.076;9.118;2023-08-12T11:35:21;26.40;75.50
8067;DHT22;4076;48.076;9.118;2023-08-12T11:37:49;26.60;75.60
8067;DHT22;4076;48.076;9.118;2023-08-12T11:40:16;26.90;75.10
8067;DHT22;4076;48.076;9.118;2023-08-12T11:42:45;27.30;76.30
8067;DHT22;4076;48.076;9.118;2023-08-12T11:45:11;27.70;74.20
8067;DHT22;4076;48.076;9.118;2023-08-12T11:47:39;28.10;74.10
8067;DHT22;4076;48.076;9.118;2023-08-12T11:50:06;28.40;72.70
8067;DHT22;4076;48.076;9.118;2023-08-12T11:52:32;28.50;71.20
8067;DHT22;4076;48.076;9.118;2023-08-12T11:54:59;28.60;70.40
8067;DHT22;4076;48.076;9.118;2023-08-12T11:57:26;28.80;70.40
8067;DHT22;4076;48.076;9.118;2023-08-12T11:59:51;29.10;67.10
8067;DHT22;4076;48.076;9.118;2023-08-12T12:02:17;29.10;63.80
8067;DHT22;4076;48.076;9.118;2023-08-12T12:04:43;29.20;64.50
8067;DHT22;4076;48.076;9.118;2023-08-12T12:07:22;29.20;64.30
8067;DHT22;4076;48.076;9.118;2023-08-12T12:09:51;29.40;64.50
8067;DHT22;4076;48.076;9.118;2023-08-12T12:12:17;29.50;62.00
8067;DHT22;4076;48.076;9.118;2023-08-12T12:14:43;29.50;61.30
8067;DHT22;4076;48.076;9.118;2023-08-12T12:17:09;29.50;58.70
8067;DHT22;4076;48.076;9.118;2023-08-12T12:19:40;29.40;57.40
8067;DHT22;4076;48.076;9.118;2023-08-12T12:22:06;29.30;59.10
8067;DHT22;4076;48.076;9.118;2023-08-12T12:24:44;29.10;57.80
8067;DHT22;4076;48.076;9.118;2023-08-12T12:27:11;28.90;57.40
8067;DHT22;4076;48.076;9.118;2023-08-12T12:29:36;28.70;58.40
8067;DHT22;4076;48.076;9.118;2023-08-12T12:32:02;28.50;57.60
8067;DHT22;4076;48.076;9.118;2023-08-12T12:34:28;28.40;58.80
8067;DHT22;4076;48.076;9.118;2023-08-12T12:36:53;28.30;59.00
8067;DHT22;4076;48.076;9.118;2023-08-12T12:39:19;28.40;59.50
8067;DHT22;4076;48.076;9.118;2023-08-12T12:41:45;28.40;59.20
8067;DHT22;4076;48.076;9.118;2023-08-12T12:44:10;28.40;59.80
8067;DHT22;4076;48.076;9.118;2023-08-12T12:46:36;28.30;59.40
8067;DHT22;4076;48.076;9.118;2023-08-12T12:49:01;28.10;59.10
8067;DHT22;4076;48.076;9.118;2023-08-12T12:51:27;28.00;58.90
8067;DHT22;4076;48.076;9.118;2023-08-12T12:53:53;27.90;59.30
8067;DHT22;4076;48.076;9.118;2023-08-12T12:56:19;27.90;59.60
8067;DHT22;4076;48.076;9.118;2023-08-12T12:58:44;28.00;60.40
8067;DHT22;4076;48.076;9.118;2023-08-12T13:01:10;28.20;60.10
8067;DHT22;4076;48.076;9.118;2023-08-12T13:03:35;28.40;59.90
8067;DHT22;4076;48.076;9.118;2023-08-12T13:06:01;28.50;58.90
8067;DHT22;4076;48.076;9.118;2023-08-12T13:08:28;28.40;58.50
8067;DHT22;4076;48.076;9.118;2023-08-12T13:10:55;28.30;58.70
8067;DHT22;4076;48.076;9.118;2023-08-12T13:13:20;28.30;59.10
8067;DHT22;4076;48.076;9.118;2023-08-12T13:15:47;28.30;59.10
8067;DHT22;4076;48.076;9.118;2023-08-12T13:18:13;28.40;59.30
8067;DHT22;4076;48.076;9.118;2023-08-12T13:20:38;28.50;59.60
8067;DHT22;4076;48.076;9.118;2023-08-12T13:23:04;28.50;59.20
8067;DHT22;4076;48.076;9.118;2023-08-12T13:25:33;28.40;58.80
8067;DHT22;4076;48.076;9.118;2023-08-12T13:28:00;28.20;59.00
8067;DHT22;4076;48.076;9.118;2023-08-12T13:30:26;28.30;59.70
8067;DHT22;4076;48.076;9.118;2023-08-12T13:32:52;28.30;59.80
8067;DHT22;4076;48.076;9.118;2023-08-12T13:35:18;28.40;58.60
8067;DHT22;4076;48.076;9.118;2023-08-12T13:37:43;28.40;59.00
8067;DHT22;4076;48.076;9.118;2023-08-12T13:40:09;28.50;57.40
8067;DHT22;4076;48.076;9.118;2023-08-12T13:42:37;28.50;58.10
8067;DHT22;4076;48.076;9.118;2023-08-12T13:45:02;28.40;57.70
8067;DHT22;4076;48.076;9.118;2023-08-12T13:47:28;28.30;58.20
8067;DHT22;4076;48.076;9.118;2023-08-12T13:49:54;28.30;59.10
8067;DHT22;4076;48.076;9.118;2023-08-12T13:52:20;28.30;59.00
8067;DHT22;4076;48.076;9.118;2023-08-12T13:54:45;28.40;59.30
8067;DHT22;4076;48.076;9.118;2023-08-12T13:57:11;28.40;59.40
8067;DHT22;4076;48.076;9.118;2023-08-12T13:59:37;28.50;60.20
8067;DHT22;4076;48.076;9.118;2023-08-12T14:02:02;28.60;59.80
8067;DHT22;4076;48.076;9.118;2023-08-12T14:04:28;28.60;59.00
8067;DHT22;4076;48.076;9.118;2023-08-12T14:06:54;28.50;58.40
8067;DHT22;4076;48.076;9.118;2023-08-12T14:09:20;28.30;59.40
8067;DHT22;4076;48.076;9.118;2023-08-12T14:11:45;28.30;59.70
8067;DHT22;4076;48.076;9.118;2023-08-12T14:14:11;28.30;59.70
8067;DHT22;4076;48.076;9.118;2023-08-12T14:16:36;28.30;60.40
8067;DHT22;4076;48.076;9.118;2023-08-12T14:19:02;28.40;62.60
8067;DHT22;4076;48.076;9.118;2023-08-12T14:21:28;28.60;60.30
8067;DHT22;4076;48.076;9.118;2023-08-12T14:23:54;28.60;60.80
8067;DHT22;4076;48.076;9.118;2023-08-12T14:26:19;28.50;60.80
8067;DHT22;4076;48.076;9.118;2023-08-12T14:28:45;28.40;60.40
8067;DHT22;4076;48.076;9.118;2023-08-12T14:31:10;28.40;62.50
8067;DHT22;4076;48.076;9.118;2023-08-12T14:33:36;28.30;61.90
8067;DHT22;4076;48.076;9.118;2023-08-12T14:36:03;28.30;63.10
8067;DHT22;4076;48.076;9.118;2023-08-12T14:38:28;28.20;63.30
8067;DHT22;4076;48.076;9.118;2023-08-12T14:40:54;28.20;63.00
8067;DHT22;4076;48.076;9.118;2023-08-12T14:43:20;28.10;61.20
8067;DHT22;4076;48.076;9.118;2023-08-12T14:45:45;28.00;62.30
8067;DHT22;4076;48.076;9.118;2023-08-12T14:48:11;28.00;64.80
8067;DHT22;4076;48.076;9.118;2023-08-12T14:50:38;28.00;64.50
8067;DHT22;4076;48.076;9.118;2023-08-12T14:53:04;27.90;64.10
8067;DHT22;4076;48.076;9.118;2023-08-12T14:55:29;27.90;63.70
8067;DHT22;4076;48.076;9.118;2023-08-12T14:57:55;27.90;64.10
8067;DHT22;4076;48.076;9.118;2023-08-12T15:00:21;27.90;64.80
8067;DHT22;4076;48.076;9.118;2023-08-12T15:02:47;27.80;64.50
8067;DHT22;4076;48.076;9.118;2023-08-12T15:05:12;27.80;64.90
8067;DHT22;4076;48.076;9.118;2023-08-12T15:07:38;27.80;64.70
8067;DHT22;4076;48.076;9.118;2023-08-12T15:10:04;27.70;64.80
8067;DHT22;4076;48.076;9.118;2023-08-12T15:12:30;27.60;64.10
8067;DHT22;4076;48.076;9.118;2023-08-12T15:14:56;27.50;64.70
8067;DHT22;4076;48.076;9.118;2023-08-12T15:17:22;27.30;64.90
8067;DHT22;4076;48.076;9.118;2023-08-12T15:19:47;27.20;66.20
8067;DHT22;4076;48.076;9.118;2023-08-12T15:22:13;27.10;65.30
8067;DHT22;4076;48.076;9.118;2023-08-12T15:24:39;27.00;66.60
8067;DHT22;4076;48.076;9.118;2023-08-12T15:27:04;26.90;65.90
8067;DHT22;4076;48.076;9.118;2023-08-12T15:29:33;26.80;67.10
8067;DHT22;4076;48.076;9.118;2023-08-12T15:31:59;26.70;67.60
8067;DHT22;4076;48.076;9.118;2023-08-12T15:34:24;26.60;68.90
8067;DHT22;4076;48.076;9.118;2023-08-12T15:36:51;26.60;69.30
8067;DHT22;4076;48.076;9.118;2023-08-12T15:39:16;26.60;69.70
8067;DHT22;4076;48.076;9.118;2023-08-12T15:41:43;26.60;70.30
8067;DHT22;4076;48.076;9.118;2023-08-12T15:44:12;26.70;70.20
8067;DHT22;4076;48.076;9.118;2023-08-12T15:46:38;26.80;70.80
8067;DHT22;4076;48.076;9.118;2023-08-12T15:49:04;26.90;70.40
8067;DHT22;4076;48.076;9.118;2023-08-12T15:51:31;27.10;70.00
8067;DHT22;4076;48.076;9.118;2023-08-12T15:53:56;27.20;68.90
8067;DHT22;4076;48.076;9.118;2023-08-12T15:56:22;27.20;70.00
8067;DHT22;4076;48.076;9.118;2023-08-12T15:58:47;27.20;68.60